createdAt,value
2023-01-10T00:00:37.647Z,99120.25
2023-01-10T00:02:09.756Z,99121.09
2023-01-10T00:03:41.724Z,99121.94
2023-01-10T00:05:13.853Z,99127.94
2023-01-10T00:06:45.869Z,99124.53
2023-01-10T00:08:18.241Z,99128.78
2023-01-10T00:09:50.166Z,99143.25
2023-01-10T00:13:12.364Z,99128.78
2023-01-10T00:14:44.389Z,99109.19
2023-01-10T00:16:16.491Z,99098.94
2023-01-10T00:17:48.607Z,99093.84
2023-01-10T00:19:20.714Z,99082.75
2023-01-10T00:20:52.902Z,99088.72
2023-01-10T00:22:26.216Z,99092.13
2023-01-10T00:24:00.676Z,99110.03
2023-01-10T00:25:34.605Z,99109.19
2023-01-10T00:27:07.028Z,99113.44
2023-01-10T00:28:39.710Z,99097.25
2023-01-10T00:30:15.224Z,99097.25
2023-01-10T00:31:50.926Z,99097.25
2023-01-10T00:33:24.016Z,99103.22
2023-01-10T00:34:56.003Z,99100.66
2023-01-10T00:36:28.029Z,99098.09
2023-01-10T00:38:05.982Z,99090.41
2023-01-10T00:39:37.973Z,99082.75
2023-01-10T00:41:29.939Z,99087.03
2023-01-10T00:43:20.423Z,99078.50
2023-01-10T00:44:52.951Z,99073.38
2023-01-10T00:46:25.536Z,99084.44
2023-01-10T00:47:57.699Z,99090.44
2023-01-10T00:49:29.748Z,99087.00
2023-01-10T00:51:02.103Z,99073.38
2023-01-10T00:52:34.086Z,99073.38
2023-01-10T00:54:06.208Z,99069.13
2023-01-10T00:55:38.509Z,99066.56
2023-01-10T00:57:10.444Z,99066.56
2023-01-10T00:58:42.747Z,99063.16
2023-01-10T01:00:15.043Z,99054.59
2023-01-10T01:01:47.244Z,99054.63
2023-01-10T01:03:20.767Z,99065.72
2023-01-10T01:04:53.067Z,99063.97
2023-01-10T01:06:25.281Z,99076.78
2023-01-10T01:07:57.234Z,99075.94
2023-01-10T01:09:30.392Z,99077.66
2023-01-10T01:11:02.459Z,99075.94
2023-01-10T01:12:34.557Z,99070.84
2023-01-10T01:14:07.037Z,99069.09
2023-01-10T01:17:11.972Z,99063.16
2023-01-10T01:18:44.051Z,99062.28
2023-01-10T01:20:16.195Z,99060.59
2023-01-10T01:21:48.166Z,99071.66
2023-01-10T01:23:20.635Z,99074.22
2023-01-10T01:24:52.617Z,99065.69
2023-01-10T01:26:25.864Z,99056.34
2023-01-10T01:27:57.889Z,99052.91
2023-01-10T01:29:42.389Z,99052.06
2023-01-10T01:31:15.479Z,99039.28
2023-01-10T01:32:49.963Z,99035.88
2023-01-10T01:34:22.254Z,99045.22
2023-01-10T01:35:54.271Z,99049.50
2023-01-10T01:37:26.577Z,99047.78
2023-01-10T01:39:01.462Z,99040.97
2023-01-10T01:40:33.415Z,99048.66
2023-01-10T01:42:06.551Z,99045.22
2023-01-10T01:44:02.345Z,99042.69
2023-01-10T01:45:37.871Z,99042.69
2023-01-10T01:47:20.883Z,99042.69
2023-01-10T01:48:52.833Z,99049.50
2023-01-10T01:50:45.068Z,99040.13
2023-01-10T01:52:24.461Z,99036.69
2023-01-10T01:54:03.973Z,99037.56
2023-01-10T01:55:37.044Z,99036.72
2023-01-10T01:57:13.006Z,99030.72
2023-01-10T01:58:54.578Z,99033.31
2023-01-10T02:00:26.917Z,99037.56
2023-01-10T02:02:02.969Z,99042.66
2023-01-10T02:03:35.575Z,99040.97
2023-01-10T02:05:10.062Z,99043.53
2023-01-10T02:06:42.579Z,99046.94
2023-01-10T02:08:14.820Z,99046.94
2023-01-10T02:09:51.076Z,99036.69
2023-01-10T02:11:23.185Z,99033.31
2023-01-10T02:12:56.677Z,99038.41
2023-01-10T02:14:29.192Z,99023.06
2023-01-10T02:16:01.617Z,99029.03
2023-01-10T02:17:33.675Z,99023.03
2023-01-10T02:19:12.545Z,99023.91
2023-01-10T02:21:25.977Z,99021.34
2023-01-10T02:23:21.943Z,99011.97
2023-01-10T02:25:24.450Z,99014.53
2023-01-10T02:27:37.991Z,99017.91
2023-01-10T02:29:47.115Z,99019.63
2023-01-10T02:31:34.205Z,99017.06
2023-01-10T02:33:12.125Z,99011.97
2023-01-10T02:34:56.092Z,99019.63
2023-01-10T02:36:52.706Z,99011.94
2023-01-10T02:38:36.316Z,99007.69
2023-01-10T02:40:25.171Z,99005.09
2023-01-10T02:42:01.753Z,99002.56
2023-01-10T02:43:38.299Z,99005.97
2023-01-10T02:45:34.534Z,98997.44
2023-01-10T02:47:08.651Z,98991.47
2023-01-10T02:50:41.816Z,98983.78
2023-01-10T02:52:36.512Z,98983.78
2023-01-10T02:54:11.264Z,98975.28
2023-01-10T02:56:08.236Z,98982.97
2023-01-10T02:57:56.538Z,99000.88
2023-01-10T02:59:43.470Z,99001.72
2023-01-10T03:01:22.822Z,98988.94
2023-01-10T03:03:14.085Z,98983.81
2023-01-10T03:04:58.036Z,98980.41
2023-01-10T03:06:45.125Z,98988.94
2023-01-10T03:08:25.686Z,98984.66
2023-01-10T03:10:16.266Z,98979.56
2023-01-10T03:11:50.950Z,98968.47
2023-01-10T03:13:45.480Z,98959.09
2023-01-10T03:15:19.669Z,98971.91
2023-01-10T03:16:58.684Z,98965.09
2023-01-10T03:18:39.579Z,98971.06
2023-01-10T03:20:12.182Z,98977.88
2023-01-10T03:21:44.780Z,98977.88
2023-01-10T03:25:00.342Z,98970.22
2023-01-10T03:26:58.613Z,98977.88
2023-01-10T03:28:56.273Z,98967.66
2023-01-10T03:30:45.434Z,98963.41
2023-01-10T03:32:20.467Z,98968.53
2023-01-10T03:33:52.495Z,98963.41
2023-01-10T03:35:34.944Z,98969.41
2023-01-10T03:37:16.826Z,98966.84
2023-01-10T03:38:56.995Z,98979.63
2023-01-10T03:40:59.785Z,98977.91
2023-01-10T03:42:56.337Z,98975.38
2023-01-10T03:44:46.119Z,98982.19
2023-01-10T03:46:28.439Z,98988.16
2023-01-10T03:48:02.982Z,98993.25
2023-01-10T03:49:37.891Z,98991.56
2023-01-10T03:51:10.542Z,98987.28
2023-01-10T03:52:43.081Z,98986.44
2023-01-10T03:54:17.004Z,98993.25
2023-01-10T03:55:49.393Z,98981.34
2023-01-10T03:57:23.588Z,98992.41
2023-01-10T03:58:56.045Z,98996.66
2023-01-10T04:00:28.074Z,98995.81
2023-01-10T04:02:00.262Z,98990.69
2023-01-10T04:03:32.404Z,98988.13
2023-01-10T04:05:04.801Z,98983.03
2023-01-10T04:06:37.011Z,98967.66
2023-01-10T04:08:09.205Z,98968.53
2023-01-10T04:09:41.191Z,98971.09
2023-01-10T04:11:13.390Z,98975.31
2023-01-10T04:12:45.541Z,98956.56
2023-01-10T04:14:17.776Z,98958.28
2023-01-10T04:15:51.095Z,98964.25
2023-01-10T04:17:23.233Z,98965.97
2023-01-10T04:18:55.309Z,98958.28
2023-01-10T04:20:27.380Z,98973.59
2023-01-10T04:21:59.352Z,98985.50
2023-01-10T04:23:31.885Z,98986.38
2023-01-10T04:25:04.079Z,98975.31
2023-01-10T04:26:36.180Z,98979.59
2023-01-10T04:28:08.315Z,98979.59
2023-01-10T04:29:40.305Z,98980.44
2023-01-10T04:31:15.367Z,98973.63
2023-01-10T04:32:48.286Z,98959.97
2023-01-10T04:34:20.486Z,98957.44
2023-01-10T04:35:57.807Z,98957.44
2023-01-10T04:37:29.837Z,98948.09
2023-01-10T04:39:01.934Z,98940.41
2023-01-10T04:40:33.915Z,98947.19
2023-01-10T04:42:05.959Z,98940.38
2023-01-10T04:43:38.006Z,98934.41
2023-01-10T04:45:12.209Z,98932.69
2023-01-10T04:46:44.395Z,98930.13
2023-01-10T04:48:16.577Z,98938.66
2023-01-10T04:49:48.590Z,98948.88
2023-01-10T04:51:20.784Z,98948.00
2023-01-10T04:52:54.067Z,98948.00
2023-01-10T04:54:26.102Z,98944.59
2023-01-10T04:56:04.048Z,98944.59
2023-01-10T04:57:41.262Z,98948.84
2023-01-10T04:59:13.338Z,98942.06
2023-01-10T05:00:45.417Z,98938.63
2023-01-10T05:02:17.507Z,98948.00
2023-01-10T05:03:54.240Z,98945.44
2023-01-10T05:05:28.765Z,98937.81
2023-01-10T05:07:00.782Z,98927.59
2023-01-10T05:08:33.204Z,98938.66
2023-01-10T05:10:06.933Z,98952.28
2023-01-10T05:11:38.889Z,98965.91
2023-01-10T05:13:11.170Z,98974.41
2023-01-10T05:14:43.129Z,98987.16
2023-01-10T05:16:18.071Z,98994.81
2023-01-10T05:17:51.634Z,99004.16
2023-01-10T05:19:23.397Z,99005.06
2023-01-10T05:21:06.556Z,99011.88
2023-01-10T05:22:38.491Z,99008.44
2023-01-10T05:24:10.538Z,99021.22
2023-01-10T05:25:42.864Z,99027.19
2023-01-10T05:28:55.371Z,99034.84
2023-01-10T05:30:27.490Z,99032.28
2023-01-10T05:31:59.478Z,99037.41
2023-01-10T05:33:31.502Z,99046.78
2023-01-10T05:35:03.527Z,99051.03
2023-01-10T05:36:35.589Z,99047.66
2023-01-10T05:38:07.587Z,99052.75
2023-01-10T05:39:41.654Z,99040.81
2023-01-10T05:41:13.696Z,99040.81
2023-01-10T05:42:45.825Z,99037.41
2023-01-10T05:44:17.950Z,99034.00
2023-01-10T05:45:50.168Z,99036.56
2023-01-10T05:47:22.757Z,99033.16
2023-01-10T05:48:54.827Z,99022.94
2023-01-10T05:50:26.863Z,99019.56
2023-01-10T05:51:58.873Z,99005.06
2023-01-10T05:53:30.991Z,98994.00
2023-01-10T05:55:03.078Z,98985.50
2023-01-10T05:56:35.245Z,98986.34
2023-01-10T05:58:07.225Z,98979.56
2023-01-10T05:59:39.286Z,98973.59
2023-01-10T06:01:11.576Z,98971.91
2023-01-10T06:02:43.630Z,98961.69
2023-01-10T06:04:15.737Z,98958.28
2023-01-10T06:05:49.035Z,98958.28
2023-01-10T06:07:22.212Z,98962.56
2023-01-10T06:08:56.683Z,98959.16
2023-01-10T06:10:28.700Z,98969.38
2023-01-10T06:12:00.847Z,98974.47
2023-01-10T06:13:33.433Z,98983.00
2023-01-10T06:15:06.351Z,98972.78
2023-01-10T06:16:38.389Z,98974.47
2023-01-10T06:18:12.030Z,98983.84
2023-01-10T06:19:44.466Z,98995.78
2023-01-10T06:21:16.936Z,98995.78
2023-01-10T06:22:49.057Z,99007.69
2023-01-10T06:24:21.025Z,99025.59
2023-01-10T06:25:52.984Z,99024.75
2023-01-10T06:29:00.143Z,99039.22
2023-01-10T06:30:32.267Z,99051.16
2023-01-10T06:32:04.293Z,99052.84
2023-01-10T06:33:39.270Z,99055.44
2023-01-10T06:35:11.318Z,99064.78
2023-01-10T06:36:43.825Z,99063.94
2023-01-10T06:38:16.785Z,99055.44
2023-01-10T06:39:48.786Z,99045.22
2023-01-10T06:41:20.818Z,99039.25
2023-01-10T06:42:53.072Z,99040.97
2023-01-10T06:44:25.091Z,99051.19
2023-01-10T06:45:57.212Z,99059.72
2023-01-10T06:47:29.324Z,99054.59
2023-01-10T06:49:01.605Z,99048.66
2023-01-10T06:50:33.561Z,99042.69
2023-01-10T06:52:05.731Z,99046.94
2023-01-10T06:53:37.880Z,99047.78
2023-01-10T06:55:10.083Z,99052.91
2023-01-10T06:56:42.085Z,99051.19
2023-01-10T06:58:18.726Z,99052.91
2023-01-10T06:59:50.770Z,99047.78
2023-01-10T07:02:58.639Z,99075.03
2023-01-10T07:04:30.645Z,99078.44
2023-01-10T07:06:03.644Z,99073.34
2023-01-10T07:07:35.687Z,99070.81
2023-01-10T07:09:08.093Z,99070.81
2023-01-10T07:10:44.258Z,99066.56
2023-01-10T07:12:16.503Z,99074.22
2023-01-10T07:13:48.500Z,99079.34
2023-01-10T07:15:20.535Z,99069.94
2023-01-10T07:16:52.542Z,99079.34
2023-01-10T07:18:24.637Z,99072.50
2023-01-10T07:19:56.765Z,99073.38
2023-01-10T07:21:28.801Z,99066.53
2023-01-10T07:23:01.225Z,99075.94
2023-01-10T07:24:33.235Z,99071.66
2023-01-10T07:26:10.890Z,99068.25
2023-01-10T07:27:43.693Z,99053.78
2023-01-10T07:29:15.628Z,99047.78
2023-01-10T07:30:47.658Z,99046.97
2023-01-10T07:32:19.697Z,99049.50
2023-01-10T07:33:52.791Z,99044.38
2023-01-10T07:35:26.149Z,99035.00
2023-01-10T07:36:58.275Z,99029.88
2023-01-10T07:38:30.495Z,99041.81
2023-01-10T07:40:02.654Z,99046.09
2023-01-10T07:41:34.803Z,99053.75
2023-01-10T07:43:06.777Z,99051.19
2023-01-10T07:44:38.800Z,99052.06
2023-01-10T07:46:12.632Z,99047.78
2023-01-10T07:47:44.728Z,99048.66
2023-01-10T07:49:16.774Z,99059.72
2023-01-10T07:50:52.512Z,99054.63
2023-01-10T07:52:24.534Z,99055.47
2023-01-10T07:53:56.545Z,99056.31
2023-01-10T07:55:29.291Z,99060.56
2023-01-10T07:57:01.774Z,99060.56
2023-01-10T07:58:33.786Z,99063.13
2023-01-10T08:00:06.423Z,99063.16
2023-01-10T08:01:38.567Z,99064.84
2023-01-10T08:03:11.321Z,99064.84
2023-01-10T08:04:43.453Z,99056.31
2023-01-10T08:06:18.446Z,99057.16
2023-01-10T08:07:50.685Z,99063.13
2023-01-10T08:09:22.836Z,99046.06
2023-01-10T08:10:55.217Z,99059.72
2023-01-10T08:12:27.323Z,99055.47
2023-01-10T08:13:59.358Z,99049.47
2023-01-10T08:15:31.665Z,99069.09
2023-01-10T08:17:03.677Z,99058.84
2023-01-10T08:18:35.766Z,99063.97
2023-01-10T08:20:08.505Z,99061.41
2023-01-10T08:21:40.557Z,99075.06
2023-01-10T08:23:12.634Z,99067.38
2023-01-10T08:24:44.647Z,99058.84
2023-01-10T08:26:16.754Z,99059.69
2023-01-10T08:27:48.859Z,99060.56
2023-01-10T08:29:20.881Z,99059.69
2023-01-10T08:30:55.977Z,99056.28
2023-01-10T08:32:28.100Z,99055.41
2023-01-10T08:34:00.297Z,99051.16
2023-01-10T08:35:37.459Z,99055.41
2023-01-10T08:37:13.647Z,99059.69
2023-01-10T08:38:46.319Z,99059.69
2023-01-10T08:40:18.662Z,99059.72
2023-01-10T08:41:50.793Z,99056.28
2023-01-10T08:43:22.896Z,99062.25
2023-01-10T08:44:54.956Z,99069.06
2023-01-10T08:46:27.359Z,99063.94
2023-01-10T08:47:59.684Z,99072.47
2023-01-10T08:49:31.721Z,99067.34
2023-01-10T08:51:09.078Z,99052.84
2023-01-10T08:52:41.228Z,99060.50
2023-01-10T08:54:13.335Z,99057.06
2023-01-10T08:55:45.360Z,99051.13
2023-01-10T08:57:17.382Z,99049.41
2023-01-10T08:58:49.434Z,99051.97
2023-01-10T09:00:22.091Z,99049.41
2023-01-10T09:01:54.251Z,99056.22
2023-01-10T09:03:26.334Z,99047.72
2023-01-10T09:04:58.518Z,99048.56
2023-01-10T09:06:30.514Z,99049.41
2023-01-10T09:08:03.732Z,99047.69
2023-01-10T09:09:37.189Z,99040.00
2023-01-10T09:11:09.173Z,99043.44
2023-01-10T09:12:56.438Z,99034.06
2023-01-10T09:14:28.530Z,99028.91
2023-01-10T09:16:00.953Z,99026.38
2023-01-10T09:17:33.065Z,99016.97
2023-01-10T09:19:05.068Z,99031.47
2023-01-10T09:20:38.828Z,99021.25
2023-01-10T09:22:10.973Z,99030.63
2023-01-10T09:23:43.994Z,99031.47
2023-01-10T09:25:16.115Z,99028.91
2023-01-10T09:26:48.170Z,99026.38
2023-01-10T09:28:21.217Z,99023.81
2023-01-10T09:29:53.279Z,99025.53
2023-01-10T09:31:25.402Z,99025.50
2023-01-10T09:32:58.542Z,99040.84
2023-01-10T09:34:30.612Z,99045.13
2023-01-10T09:36:02.884Z,99040.88
2023-01-10T09:37:35.321Z,99040.00
2023-01-10T09:39:07.315Z,99040.84
2023-01-10T09:41:00.602Z,99034.03
2023-01-10T09:42:51.340Z,99034.88
2023-01-10T09:44:43.598Z,99040.00
2023-01-10T09:46:28.673Z,99022.09
2023-01-10T09:48:05.233Z,99021.25
2023-01-10T09:50:05.329Z,99019.53
2023-01-10T09:51:41.351Z,99018.66
2023-01-10T09:53:17.086Z,99022.94
2023-01-10T09:54:50.968Z,99014.41
2023-01-10T09:56:23.456Z,99013.56
2023-01-10T09:57:57.160Z,99005.03
2023-01-10T09:59:40.913Z,99007.59
2023-01-10T10:01:26.196Z,99005.88
2023-01-10T10:02:58.348Z,98995.69
2023-01-10T10:04:36.437Z,98990.53
2023-01-10T10:06:12.933Z,98988.84
2023-01-10T10:07:45.482Z,98982.03
2023-01-10T10:09:21.934Z,98978.63
2023-01-10T10:11:01.532Z,98974.38
2023-01-10T10:12:49.397Z,98970.94
2023-01-10T10:14:32.306Z,98956.44
2023-01-10T10:16:41.602Z,98959.00
2023-01-10T10:18:31.995Z,98954.78
2023-01-10T10:20:04.535Z,98944.53
2023-01-10T10:22:19.834Z,98946.22
2023-01-10T10:24:09.784Z,98939.41
2023-01-10T10:26:05.476Z,98935.97
2023-01-10T10:27:55.337Z,98947.03
2023-01-10T10:29:49.439Z,98943.63
2023-01-10T10:31:43.746Z,98935.06
2023-01-10T10:33:48.877Z,98936.75
2023-01-10T10:35:27.363Z,98935.91
2023-01-10T10:37:06.593Z,98936.72
2023-01-10T10:38:43.935Z,98929.88
2023-01-10T10:40:26.247Z,98932.41
2023-01-10T10:41:58.548Z,98930.72
2023-01-10T10:43:33.895Z,98936.69
2023-01-10T10:45:20.866Z,98929.81
2023-01-10T10:46:53.109Z,98931.53
2023-01-10T10:48:31.758Z,98934.09
2023-01-10T10:50:15.807Z,98928.97
2023-01-10T10:51:52.111Z,98934.06
2023-01-10T10:53:24.150Z,98933.22
2023-01-10T10:54:56.271Z,98933.22
2023-01-10T10:56:28.444Z,98937.50
2023-01-10T10:58:01.405Z,98937.47
2023-01-10T10:59:33.764Z,98941.75
2023-01-10T11:01:06.101Z,98933.22
2023-01-10T11:02:46.466Z,98928.91
2023-01-10T11:04:22.939Z,98934.88
2023-01-10T11:05:55.603Z,98935.72
2023-01-10T11:07:30.530Z,98928.03
2023-01-10T11:09:05.337Z,98933.16
2023-01-10T11:10:38.788Z,98931.47
2023-01-10T11:12:17.923Z,98922.03
2023-01-10T11:13:55.492Z,98920.34
2023-01-10T11:15:45.526Z,98928.00
2023-01-10T11:17:30.782Z,98925.44
2023-01-10T11:19:24.055Z,98921.19
2023-01-10T11:21:02.783Z,98920.34
2023-01-10T11:22:46.565Z,98916.94
2023-01-10T11:24:29.413Z,98910.97
2023-01-10T11:26:01.633Z,98914.41
2023-01-10T11:27:52.187Z,98916.06
2023-01-10T11:29:39.967Z,98911.81
2023-01-10T11:31:11.953Z,98914.44
2023-01-10T11:33:19.011Z,98910.97
2023-01-10T11:34:54.393Z,98909.25
2023-01-10T11:36:26.388Z,98910.19
2023-01-10T11:38:15.098Z,98909.28
2023-01-10T11:39:47.044Z,98906.75
2023-01-10T11:41:18.999Z,98901.59
2023-01-10T11:42:52.576Z,98904.97
2023-01-10T11:44:25.679Z,98906.66
2023-01-10T11:46:03.116Z,98904.13
2023-01-10T11:47:41.697Z,98909.31
2023-01-10T11:49:28.362Z,98908.41
2023-01-10T11:51:00.452Z,98900.78
2023-01-10T11:52:32.522Z,98906.78
2023-01-10T11:54:07.303Z,98903.38
2023-01-10T11:55:39.440Z,98906.81
2023-01-10T11:57:23.874Z,98902.50
2023-01-10T11:58:56.265Z,98901.66
2023-01-10T12:00:38.825Z,98898.22
2023-01-10T12:02:23.928Z,98902.50
2023-01-10T12:03:56.557Z,98908.47
2023-01-10T12:05:29.099Z,98913.59
2023-01-10T12:07:09.279Z,98916.16
2023-01-10T12:08:45.263Z,98911.06
2023-01-10T12:10:21.912Z,98917.88
2023-01-10T12:12:02.854Z,98919.56
2023-01-10T12:13:47.358Z,98917.88
2023-01-10T12:15:22.239Z,98911.91
2023-01-10T12:17:02.005Z,98911.91
2023-01-10T12:18:34.159Z,98911.09
2023-01-10T12:20:07.568Z,98911.06
2023-01-10T12:21:43.312Z,98911.09
2023-01-10T12:23:21.433Z,98911.97
2023-01-10T12:24:54.794Z,98906.00
2023-01-10T12:26:30.821Z,98912.00
2023-01-10T12:28:03.101Z,98908.59
2023-01-10T12:29:37.805Z,98906.06
2023-01-10T12:31:16.053Z,98909.47
2023-01-10T12:32:56.400Z,98910.34
2023-01-10T12:34:40.838Z,98912.88
2023-01-10T12:36:31.699Z,98916.28
2023-01-10T12:38:45.103Z,98922.22
2023-01-10T12:40:29.798Z,98915.41
2023-01-10T12:42:26.264Z,98925.63
2023-01-10T12:44:15.152Z,98922.19
2023-01-10T12:46:29.763Z,98920.53
2023-01-10T12:50:04.690Z,98925.63
2023-01-10T12:51:37.375Z,98927.34
2023-01-10T12:53:09.366Z,98923.06
2023-01-10T12:54:41.386Z,98918.81
2023-01-10T12:56:15.921Z,98919.69
2023-01-10T12:57:52.184Z,98917.97
2023-01-10T12:59:38.123Z,98920.53
2023-01-10T13:01:41.002Z,98916.25
2023-01-10T13:03:16.074Z,98922.22
2023-01-10T13:04:53.852Z,98917.97
2023-01-10T13:06:31.873Z,98923.97
2023-01-10T13:08:12.568Z,98928.22
2023-01-10T13:09:45.026Z,98941.06
2023-01-10T13:11:19.057Z,98934.22
2023-01-10T13:12:59.576Z,98941.91
2023-01-10T13:14:37.131Z,98932.50
2023-01-10T13:16:31.337Z,98936.78
2023-01-10T13:18:18.476Z,98936.78
2023-01-10T13:20:14.924Z,98929.97
2023-01-10T13:21:47.669Z,98937.66
2023-01-10T13:23:30.618Z,98932.53
2023-01-10T13:25:03.749Z,98937.66
2023-01-10T13:26:52.302Z,98933.41
2023-01-10T13:28:27.311Z,98934.25
2023-01-10T13:29:59.538Z,98932.56
2023-01-10T13:33:23.800Z,98943.63
2023-01-10T13:34:56.460Z,98941.91
2023-01-10T13:36:31.932Z,98938.47
2023-01-10T13:38:04.076Z,98940.19
2023-01-10T13:39:41.678Z,98939.31
2023-01-10T13:41:33.679Z,98940.19
2023-01-10T13:43:36.980Z,98935.00
2023-01-10T13:45:12.223Z,98943.56
2023-01-10T13:46:47.692Z,98945.25
2023-01-10T13:48:27.960Z,98941.81
2023-01-10T13:50:00.076Z,98945.25
2023-01-10T13:51:32.452Z,98942.66
2023-01-10T13:53:33.249Z,98940.06
2023-01-10T13:55:24.448Z,98950.31
2023-01-10T13:56:56.488Z,98946.09
2023-01-10T13:58:58.929Z,98951.19
2023-01-10T14:00:52.308Z,98942.63
2023-01-10T14:02:29.267Z,98944.41
2023-01-10T14:04:01.371Z,98935.88
2023-01-10T14:05:33.379Z,98935.00
2023-01-10T14:07:13.763Z,98929.00
2023-01-10T14:08:54.198Z,98931.56
2023-01-10T14:10:31.150Z,98926.41
2023-01-10T14:12:07.723Z,98925.56
2023-01-10T14:13:47.401Z,98925.56
2023-01-10T14:15:32.685Z,98919.59
2023-01-10T14:17:29.013Z,98922.97
2023-01-10T14:19:02.945Z,98914.47
2023-01-10T14:20:36.601Z,98926.38
2023-01-10T14:22:19.086Z,98931.47
2023-01-10T14:23:52.858Z,98932.34
2023-01-10T14:25:29.574Z,98931.47
2023-01-10T14:27:02.356Z,98924.66
2023-01-10T14:28:34.953Z,98920.34
2023-01-10T14:30:07.693Z,98919.47
2023-01-10T14:31:44.267Z,98924.59
2023-01-10T14:33:21.077Z,98917.75
2023-01-10T14:34:53.385Z,98916.06
2023-01-10T14:36:29.108Z,98924.56
2023-01-10T14:38:05.442Z,98905.78
2023-01-10T14:39:38.136Z,98898.94
2023-01-10T14:41:18.185Z,98900.63
2023-01-10T14:42:51.201Z,98897.22
2023-01-10T14:44:46.229Z,98892.94
2023-01-10T14:46:23.183Z,98897.22
2023-01-10T14:47:55.327Z,98892.97
2023-01-10T14:49:29.543Z,98898.91
2023-01-10T14:51:30.748Z,98912.56
2023-01-10T14:53:02.765Z,98931.38
2023-01-10T14:54:34.826Z,98939.91
2023-01-10T14:56:38.495Z,98939.84
2023-01-10T14:58:18.080Z,98936.44
2023-01-10T14:59:51.211Z,98947.56
2023-01-10T15:01:26.336Z,98953.50
2023-01-10T15:03:03.616Z,98952.66
2023-01-10T15:04:36.896Z,98942.41
2023-01-10T15:06:08.961Z,98932.22
2023-01-10T15:07:41.123Z,98942.47
2023-01-10T15:09:15.225Z,98942.44
2023-01-10T15:10:48.477Z,98947.53
2023-01-10T15:12:21.847Z,98942.41
2023-01-10T15:14:07.760Z,98951.78
2023-01-10T15:15:41.011Z,98948.38
2023-01-10T15:17:22.965Z,98949.25
2023-01-10T15:18:56.916Z,98951.78
2023-01-10T15:20:29.317Z,98955.19
2023-01-10T15:22:01.460Z,98955.19
2023-01-10T15:23:42.028Z,98955.16
2023-01-10T15:25:32.532Z,98949.19
2023-01-10T15:27:09.005Z,98938.09
2023-01-10T15:28:41.300Z,98936.41
2023-01-10T15:30:19.957Z,98924.41
2023-01-10T15:31:55.751Z,98926.13
2023-01-10T15:33:33.308Z,98935.50
2023-01-10T15:35:07.157Z,98938.06
2023-01-10T15:36:43.834Z,98940.59
2023-01-10T15:38:20.607Z,98935.50
2023-01-10T15:39:54.606Z,98932.94
2023-01-10T15:41:27.120Z,98932.09
2023-01-10T15:43:18.291Z,98927.78
2023-01-10T15:44:54.746Z,98927.78
2023-01-10T15:46:27.521Z,98930.38
2023-01-10T15:48:05.598Z,98925.22
2023-01-10T15:49:37.800Z,98926.13
2023-01-10T15:51:21.227Z,98934.59
2023-01-10T15:53:02.291Z,98938.00
2023-01-10T15:54:34.408Z,98950.88
2023-01-10T15:56:12.651Z,98954.22
2023-01-10T15:57:44.671Z,98964.53
2023-01-10T15:59:24.443Z,98967.88
2023-01-10T16:02:33.341Z,98978.13
2023-01-10T16:04:06.089Z,98976.44
2023-01-10T16:05:38.084Z,98973.06
2023-01-10T16:07:15.113Z,98970.44
2023-01-10T16:08:50.264Z,98977.28
2023-01-10T16:10:26.888Z,98973.00
2023-01-10T16:12:17.343Z,98973.00
2023-01-10T16:13:49.341Z,98977.28
2023-01-10T16:15:24.117Z,98970.44
2023-01-10T16:16:56.234Z,98967.88
2023-01-10T16:18:28.411Z,98970.44
2023-01-10T16:20:00.383Z,98965.31
2023-01-10T16:21:36.866Z,98972.09
2023-01-10T16:23:15.838Z,98982.34
2023-01-10T16:24:49.687Z,98972.97
2023-01-10T16:26:21.765Z,98968.69
2023-01-10T16:27:56.610Z,98951.63
2023-01-10T16:29:28.848Z,98946.47
2023-01-10T16:31:06.577Z,98942.16
2023-01-10T16:32:38.919Z,98951.63
2023-01-10T16:34:11.043Z,98955.84
2023-01-10T16:35:46.515Z,98966.09
2023-01-10T16:37:18.628Z,98978.94
2023-01-10T16:38:50.663Z,98987.47
2023-01-10T16:40:26.049Z,98990.88
2023-01-10T16:42:16.455Z,98993.44
2023-01-10T16:43:49.787Z,99003.69
2023-01-10T16:45:21.948Z,99001.97
2023-01-10T16:46:54.578Z,99001.97
2023-01-10T16:48:29.468Z,99001.94
2023-01-10T16:50:01.518Z,98999.41
2023-01-10T16:51:34.541Z,99002.81
2023-01-10T16:53:07.605Z,99010.47
2023-01-10T16:54:39.694Z,99007.94
2023-01-10T16:56:14.643Z,99019.88
2023-01-10T16:57:48.342Z,99020.75
2023-01-10T16:59:20.871Z,99020.75
2023-01-10T17:00:53.459Z,99018.16
2023-01-10T17:02:25.613Z,99012.22
2023-01-10T17:03:58.025Z,99013.91
2023-01-10T17:05:30.252Z,99029.28
2023-01-10T17:07:02.518Z,99024.16
2023-01-10T17:08:34.620Z,99027.56
2023-01-10T17:10:07.103Z,99023.28
2023-01-10T17:11:42.273Z,99021.56
2023-01-10T17:13:23.156Z,99013.84
2023-01-10T17:14:55.328Z,99019.00
2023-01-10T17:16:27.945Z,99025.84
2023-01-10T17:18:00.118Z,99018.16
2023-01-10T17:19:32.558Z,99021.56
2023-01-10T17:21:04.848Z,99011.31
2023-01-10T17:22:36.965Z,99014.75
2023-01-10T17:24:10.977Z,99019.84
2023-01-10T17:25:43.291Z,99016.44
2023-01-10T17:27:15.292Z,99009.63
2023-01-10T17:28:49.955Z,99020.69
2023-01-10T17:30:22.148Z,99021.50
2023-01-10T17:31:54.380Z,99018.94
2023-01-10T17:33:27.563Z,99026.63
2023-01-10T17:34:59.574Z,99020.66
2023-01-10T17:36:39.059Z,99024.03
2023-01-10T17:38:16.549Z,99024.91
2023-01-10T17:39:48.532Z,99036.00
2023-01-10T17:41:20.743Z,99036.84
2023-01-10T17:42:52.849Z,99043.72
2023-01-10T17:44:25.160Z,99054.81
2023-01-10T17:45:59.204Z,99055.69
2023-01-10T17:47:31.428Z,99062.53
2023-01-10T17:49:03.785Z,99061.66
2023-01-10T17:50:36.888Z,99064.22
2023-01-10T17:52:09.406Z,99065.91
2023-01-10T17:53:41.814Z,99059.09
2023-01-10T17:55:16.472Z,99053.97
2023-01-10T17:56:48.618Z,99053.97
2023-01-10T17:58:21.726Z,99069.31
2023-01-10T17:59:53.818Z,99079.59
2023-01-10T18:01:26.657Z,99081.25
2023-01-10T18:02:58.884Z,99091.53
2023-01-10T18:04:31.055Z,99085.59
2023-01-10T18:06:05.567Z,99094.97
2023-01-10T18:07:37.717Z,99096.69
2023-01-10T18:09:10.005Z,99101.81
2023-01-10T18:10:42.114Z,99089.84
2023-01-10T18:12:14.146Z,99088.16
2023-01-10T18:13:46.281Z,99089.84
2023-01-10T18:15:18.465Z,99092.41
2023-01-10T18:16:50.756Z,99079.56
2023-01-10T18:18:25.379Z,99076.13
2023-01-10T18:19:57.601Z,99077.91
2023-01-10T18:21:29.628Z,99071.97
2023-01-10T18:23:20.417Z,99070.22
2023-01-10T18:24:54.029Z,99073.69
2023-01-10T18:26:26.109Z,99076.22
2023-01-10T18:27:58.207Z,99080.53
2023-01-10T18:29:30.271Z,99083.94
2023-01-10T18:31:06.725Z,99091.59
2023-01-10T18:32:38.804Z,99098.50
2023-01-10T18:34:10.921Z,99096.75
2023-01-10T18:35:43.404Z,99094.19
2023-01-10T18:37:19.560Z,99095.94
2023-01-10T18:38:52.282Z,99102.78
2023-01-10T18:40:24.450Z,99106.22
2023-01-10T18:41:57.507Z,99100.22
2023-01-10T18:43:30.232Z,99108.78
2023-01-10T18:46:40.953Z,99100.38
2023-01-10T18:48:16.420Z,99116.53
2023-01-10T18:49:48.582Z,99123.34
2023-01-10T18:51:21.988Z,99125.91
2023-01-10T18:52:54.046Z,99135.28
2023-01-10T18:54:28.256Z,99119.06
2023-01-10T18:56:02.408Z,99126.75
2023-01-10T18:57:34.436Z,99127.59
2023-01-10T18:59:06.702Z,99125.03
2023-01-10T19:00:38.630Z,99123.31
2023-01-10T19:02:13.479Z,99128.47
2023-01-10T19:03:46.183Z,99127.59
2023-01-10T19:05:18.402Z,99121.63
2023-01-10T19:06:50.369Z,99122.50
2023-01-10T19:08:22.389Z,99124.22
2023-01-10T19:09:54.425Z,99124.25